Time;durP1;ratioP1;P1;durP2;ratioP2;P2;SDS_P1;SDS_P2;PMS_P1;PMS_P2;Temp;Humidity;BMP_temperature;BMP_pressure;BME280_temperature;BME280_humidity;BME280_pressure;Samples;Min_cycle;Max_cycle;Signal;HPM_P1;HPM_P2
2021/07/09 00:08:37;;;;;;;3.38;3.08;;;;;;;20.43;76.39;100166.64;259812;1093;102941;-65
2021/07/09 00:13:43;;;;;;;4.68;3.88;;;;;;;20.41;76.21;100158.80;254335;1104;115356;-66
2021/07/09 00:18:48;;;;;;;4.23;3.33;;;;;;;20.34;75.86;100182.67;254500;1104;115869;-68
2021/07/09 00:23:53;;;;;;;7.07;4.37;;;;;;;20.30;76.49;100178.12;254587;1103;115269;-68
2021/07/09 00:28:59;;;;;;;6.68;4.40;;;;;;;20.36;76.59;100130.95;255192;1104;115330;-68
2021/07/09 00:34:05;;;;;;;6.65;4.25;;;;;;;20.47;76.79;100081.83;255133;1103;115069;-69
2021/07/09 00:39:11;;;;;;;8.13;4.17;;;;;;;20.50;76.71;100070.38;254216;1100;115865;-67
2021/07/09 00:44:16;;;;;;;5.05;4.00;;;;;;;20.53;76.68;100068.19;254874;1099;115399;-66
2021/07/09 00:49:20;;;;;;;10.43;5.03;;;;;;;20.49;76.42;100036.27;254424;1104;116560;-65
2021/07/09 00:54:27;;;;;;;9.17;4.20;;;;;;;20.43;76.39;99977.09;255319;1100;117488;-68
2021/07/09 00:59:31;;;;;;;7.50;5.00;;;;;;;20.23;76.22;99913.18;254994;1104;115895;-65
2021/07/09 01:04:37;;;;;;;4.93;4.50;;;;;;;20.18;76.71;99926.78;254172;1104;115586;-65
2021/07/09 01:09:42;;;;;;;5.44;4.68;;;;;;;20.19;76.64;99904.84;254662;1104;115686;-65
2021/07/09 01:14:48;;;;;;;7.25;4.58;;;;;;;20.13;76.63;99886.29;254586;1104;117138;-66
2021/07/09 01:19:53;;;;;;;5.75;4.63;;;;;;;20.15;76.79;99884.09;255118;1104;114827;-66
2021/07/09 01:24:59;;;;;;;10.23;5.60;;;;;;;20.12;76.67;99871.95;256397;1104;117093;-67
2021/07/09 01:30:08;;;;;;;6.00;5.47;;;;;;;20.13;76.63;99865.44;257406;1104;116560;-68
2021/07/09 01:35:14;;;;;;;9.63;6.17;;;;;;;20.12;76.76;99846.80;257204;1104;116757;-68
2021/07/09 01:40:19;;;;;;;4.13;3.73;;;;;;;20.08;76.31;99840.36;257122;1099;115477;-67
2021/07/09 01:45:25;;;;;;;8.15;4.48;;;;;;;20.05;76.69;99838.23;254450;1104;115425;-66
2021/07/09 01:50:30;;;;;;;;;;;;;;;20.02;76.76;99830.70;255706;1104;115665;-67
2021/07/09 01:55:35;;;;;;;6.40;5.63;;;;;;;19.93;76.40;99810.81;256393;1103;102958;-67
2021/07/09 02:00:39;;;;;;;6.13;5.53;;;;;;;19.82;76.49;99800.17;256100;1104;114432;-66
2021/07/09 02:05:45;;;;;;;6.98;6.28;;;;;;;19.82;76.50;99794.77;255540;1104;115001;-66
2021/07/09 02:10:50;;;;;;;12.33;6.93;;;;;;;19.87;77.06;99788.48;254854;1104;116538;-65
2021/07/09 02:15:55;;;;;;;8.63;5.75;;;;;;;19.87;76.89;99784.97;254796;1104;115337;-67
2021/07/09 02:28:15;;;;;;;5.93;5.28;;;;;;;19.72;77.48;99783.28;261688;1093;105197;-65
2021/07/09 02:33:17;;;;;;;9.30;6.55;;;;;;;19.68;77.72;99777.66;254323;1103;115345;-65
2021/07/09 02:38:19;;;;;;;6.20;5.67;;;;;;;19.72;78.17;99777.88;255834;1101;114413;-65
2021/07/09 02:43:23;;;;;;;7.68;6.90;;;;;;;19.81;78.12;99786.94;255201;1101;116292;-65
2021/07/09 02:48:26;;;;;;;7.30;6.68;;;;;;;19.92;78.37;99787.56;254469;1104;115501;-65
2021/07/09 02:53:29;;;;;;;8.13;6.15;;;;;;;20.02;78.24;99784.70;254556;1101;116319;-65
2021/07/09 02:58:32;;;;;;;7.27;6.63;;;;;;;20.01;78.20;99788.51;254709;1101;115247;-65
2021/07/09 03:03:35;;;;;;;8.83;7.70;;;;;;;20.06;78.10;99794.65;255406;1103;116746;-65
2021/07/09 03:08:39;;;;;;;10.33;7.07;;;;;;;20.03;77.60;99799.84;255604;1103;114905;-65
2021/07/09 03:13:44;;;;;;;8.53;7.67;;;;;;;20.09;78.08;99802.17;256091;1104;114738;-67
2021/07/09 03:18:48;;;;;;;8.33;7.10;;;;;;;20.23;77.89;99815.73;254739;1103;115823;-66
2021/07/09 03:23:51;;;;;;;7.40;6.23;;;;;;;20.29;77.92;99819.16;256110;1103;114731;-66
2021/07/09 03:28:57;;;;;;;7.93;6.77;;;;;;;20.35;77.58;99816.08;255509;1104;114327;-66
2021/07/09 03:34:01;;;;;;;;;;;;;;;20.34;77.46;99805.55;255827;1103;115274;-66
2021/07/09 03:39:04;;;;;;;7.47;6.57;;;;;;;20.32;77.56;99797.72;258052;1104;101454;-68
2021/07/09 03:44:08;;;;;;;5.98;5.48;;;;;;;20.38;77.39;99798.47;254711;1104;115566;-68
2021/07/09 03:49:12;;;;;;;7.00;6.30;;;;;;;20.42;77.40;99807.61;255616;1103;115574;-67
2021/07/09 03:54:14;;;;;;;5.78;5.35;;;;;;;20.56;77.30;99819.25;255235;1103;115717;-64
2021/07/09 03:59:17;;;;;;;5.67;5.17;;;;;;;20.76;77.18;99802.64;257314;1103;116029;-67
2021/07/09 04:04:21;;;;;;;8.40;4.90;;;;;;;20.92;76.85;99794.20;257063;1096;116796;-67
2021/07/09 04:09:23;;;;;;;6.00;5.10;;;;;;;21.08;76.73;99801.73;257226;1103;115993;-68
2021/07/09 04:14:28;;;;;;;8.90;5.13;;;;;;;21.20;76.56;99812.05;256213;1104;115419;-68
2021/07/09 04:19:32;;;;;;;5.18;4.68;;;;;;;21.29;76.18;99809.47;255882;1103;115681;-68
2021/07/09 04:24:35;;;;;;;6.00;5.40;;;;;;;21.34;76.15;99815.59;256149;1103;114458;-69
2021/07/09 04:29:38;;;;;;;8.20;5.58;;;;;;;21.17;76.23;99816.16;254323;1103;115118;-68
2021/07/09 04:34:42;;;;;;;5.67;5.17;;;;;;;20.96;76.34;99816.89;255109;1102;114538;-67
2021/07/09 04:39:46;;;;;;;8.48;4.83;;;;;;;20.76;76.42;99804.55;254330;1102;114300;-65
2021/07/09 04:44:49;;;;;;;6.38;5.18;;;;;;;20.74;76.36;99804.84;255539;1103;114985;-63
2021/07/09 04:49:51;;;;;;;6.90;4.73;;;;;;;20.81;76.55;99794.39;255017;1102;114972;-65
2021/07/09 04:54:54;;;;;;;7.68;5.95;;;;;;;20.92;76.82;99795.00;254446;1104;114794;-65
2021/07/09 04:59:57;;;;;;;7.73;5.33;;;;;;;21.10;76.87;99772.39;254361;1103;115098;-65
2021/07/09 05:05:00;;;;;;;7.43;5.43;;;;;;;21.13;76.67;99741.97;254381;1104;115175;-65
2021/07/09 05:10:04;;;;;;;7.23;5.73;;;;;;;21.21;76.89;99759.47;254841;1103;115822;-65
2021/07/09 05:15:08;;;;;;;9.33;5.83;;;;;;;23.43;75.24;99767.55;254564;1103;115301;-66
2021/07/09 05:20:12;;;;;;;7.50;5.28;;;;;;;25.73;72.45;99789.22;254871;1101;115264;-65
2021/07/09 05:25:16;;;;;;;6.38;5.80;;;;;;;25.11;71.87;99787.22;254297;1101;115878;-68
2021/07/09 05:30:20;;;;;;;9.05;7.10;;;;;;;24.28;71.62;99782.26;254933;1096;114564;-67
2021/07/09 05:35:23;;;;;;;14.05;7.18;;;;;;;23.69;71.82;99781.99;254845;1102;195237;-68
2021/07/09 05:40:27;;;;;;;8.15;6.10;;;;;;;23.19;71.77;99773.45;255086;1103;116155;-67
2021/07/09 05:45:31;;;;;;;15.60;7.17;;;;;;;22.75;72.44;99786.08;254810;1096;115992;-65
2021/07/09 05:50:35;;;;;;;7.08;6.20;;;;;;;22.49;73.23;99799.55;255280;1101;115729;-66
2021/07/09 05:55:38;;;;;;;10.63;8.00;;;;;;;22.32;73.56;99812.25;254742;1103;115745;-66
2021/07/09 06:00:42;;;;;;;7.70;7.10;;;;;;;22.14;74.04;99805.89;255636;1101;116482;-66
2021/07/09 06:05:46;;;;;;;7.35;5.50;;;;;;;22.01;74.34;100015.78;257239;1102;115521;-65
2021/07/09 06:10:50;;;;;;;7.70;7.00;;;;;;;21.73;74.55;99983.19;257276;1104;116142;-67
2021/07/09 06:15:55;;;;;;;9.77;8.87;;;;;;;21.63;74.82;100037.67;256867;1103;117047;-67
2021/07/09 06:20:59;;;;;;;7.60;6.97;;;;;;;21.46;75.15;100035.53;256256;1104;116428;-69
2021/07/09 06:26:03;;;;;;;11.10;8.17;;;;;;;21.39;75.63;100035.14;254293;1103;115935;-65
2021/07/09 06:31:06;;;;;;;8.90;7.95;;;;;;;21.39;75.81;100034.33;254609;1096;116683;-66
2021/07/09 06:36:12;;;;;;;9.30;8.50;;;;;;;21.40;76.09;100038.66;256239;1101;116555;-67
2021/07/09 06:41:22;;;;;;;14.18;10.08;;;;;;;21.46;76.26;100026.59;254509;1104;116208;-66
2021/07/09 06:46:24;;;;;;;15.38;9.45;;;;;;;21.60;76.74;100011.14;255699;1103;116711;-66
2021/07/09 06:51:27;;;;;;;9.38;8.63;;;;;;;21.82;76.61;100011.23;255520;1103;116038;-65
2021/07/09 06:56:32;;;;;;;11.25;10.33;;;;;;;21.93;76.63;100008.32;255073;1103;116188;-66
2021/07/09 07:01:36;;;;;;;10.90;8.75;;;;;;;22.07;76.68;100011.84;255322;1104;116224;-66
2021/07/09 07:06:39;;;;;;;12.40;9.23;;;;;;;22.14;76.54;100023.09;254350;1104;115447;-67
2021/07/09 07:11:43;;;;;;;10.78;9.78;;;;;;;22.24;76.77;100020.16;254294;1102;115525;-65
2021/07/09 07:16:46;;;;;;;13.53;10.45;;;;;;;22.39;76.70;99995.37;254189;1104;116054;-65
2021/07/09 07:21:49;;;;;;;10.48;9.48;;;;;;;22.49;76.69;99973.41;254547;1104;115577;-64
2021/07/09 07:26:52;;;;;;;10.35;9.30;;;;;;;22.59;76.24;99949.84;254741;1102;115148;-65
2021/07/09 07:31:57;;;;;;;11.85;10.75;;;;;;;22.67;76.36;99935.48;254992;1103;115695;-66
2021/07/09 07:37:00;;;;;;;10.70;9.75;;;;;;;22.71;75.73;99915.53;256019;1101;115408;-66
2021/07/09 07:42:05;;;;;;;10.93;9.78;;;;;;;22.83;75.84;99912.29;256234;1101;115432;-66
2021/07/09 07:47:08;;;;;;;10.97;9.97;;;;;;;23.02;76.03;99891.10;256281;1103;114897;-67
2021/07/09 07:52:13;;;;;;;12.60;11.03;;;;;;;23.24;75.57;99870.38;254663;1102;115168;-66
2021/07/09 07:57:17;;;;;;;10.10;9.30;;;;;;;23.45;75.39;99879.58;255829;1101;115604;-67
2021/07/09 08:02:20;;;;;;;11.67;8.77;;;;;;;23.91;75.26;99870.85;257015;1104;114384;-66
2021/07/09 08:07:23;;;;;;;13.35;9.13;;;;;;;25.02;74.92;99866.38;256896;1102;115174;-65
2021/07/09 08:12:26;;;;;;;11.55;10.43;;;;;;;26.12;74.16;99861.66;256121;1103;115921;-67
2021/07/09 08:17:29;;;;;;;14.05;11.55;;;;;;;26.94;72.92;99846.16;257217;1102;115452;-67
2021/07/09 08:22:37;;;;;;;13.50;11.18;;;;;;;27.61;71.51;99846.74;257154;1103;116626;-68
2021/07/09 08:27:41;;;;;;;13.67;12.40;;;;;;;28.17;71.01;99842.09;254558;1101;115793;-68
2021/07/09 08:32:45;;;;;;;12.77;11.07;;;;;;;28.54;70.11;99853.70;254812;1101;115302;-68
2021/07/09 08:37:49;;;;;;;13.00;8.60;;;;;;;28.64;68.73;99847.71;254830;1101;116047;-67
2021/07/09 08:42:53;;;;;;;;;;;;;;;28.89;68.60;99845.62;255602;1101;115519;-68
2021/07/09 08:47:58;;;;;;;15.13;12.77;;;;;;;29.01;68.53;99848.28;255511;1103;103307;-69
2021/07/09 08:53:01;;;;;;;11.95;10.85;;;;;;;29.26;67.44;99846.13;255551;1097;115678;-69
2021/07/09 08:58:06;;;;;;;10.83;9.73;;;;;;;29.45;67.12;99856.38;254601;1097;116979;-66
2021/07/09 09:03:26;;;;;;;15.00;11.60;;;;;;;30.04;67.11;99860.80;255637;1097;115029;-68
2021/07/09 09:08:35;;;;;;;11.07;10.10;;;;;;;29.86;65.49;99856.88;254694;1101;115385;-68
2021/07/09 09:13:41;;;;;;;12.47;11.43;;;;;;;29.20;65.58;99853.03;255345;1095;115499;-68
2021/07/09 09:18:58;;;;;;;12.73;11.70;;;;;;;29.23;66.47;99851.52;255397;1101;115344;-68
2021/07/09 09:24:03;;;;;;;13.78;11.50;;;;;;;29.58;66.14;99855.11;254428;1096;115662;-67
2021/07/09 09:29:25;;;;;;;11.90;10.90;;;;;;;29.91;65.50;99842.84;254070;1103;115497;-68
2021/07/09 09:34:49;;;;;;;11.65;10.18;;;;;;;30.17;65.37;99843.02;254519;1101;115785;-68
2021/07/09 09:39:52;;;;;;;14.73;10.50;;;;;;;30.38;65.27;99839.86;254446;1102;115955;-68
2021/07/09 09:45:05;;;;;;;10.77;9.70;;;;;;;30.74;64.46;99833.86;254426;1101;115884;-69
2021/07/09 09:50:13;;;;;;;10.03;9.20;;;;;;;31.07;63.56;99826.91;255889;1101;116530;-69
2021/07/09 09:55:33;;;;;;;10.68;9.60;;;;;;;31.43;62.52;99825.51;254378;1096;116447;-69
2021/07/09 10:00:39;;;;;;;10.40;9.53;;;;;;;31.63;61.11;99817.89;256240;1101;118876;-69
2021/07/09 10:05:54;;;;;;;11.47;9.80;;;;;;;31.57;60.73;99822.93;255617;1101;116684;-69
2021/07/09 10:10:58;;;;;;;11.88;10.73;;;;;;;31.38;59.92;99814.80;257150;1103;116043;-70
2021/07/09 10:16:04;;;;;;;11.83;10.83;;;;;;;31.17;60.12;99801.54;257467;1101;116096;-68
2021/07/09 10:21:08;;;;;;;11.27;9.33;;;;;;;31.06;59.97;99812.35;257575;1101;116249;-69
2021/07/09 10:26:11;;;;;;;12.40;10.70;;;;;;;31.11;60.25;99803.78;257590;1101;116561;-70
2021/07/09 10:31:37;;;;;;;11.33;10.50;;;;;;;31.05;59.75;99805.25;255057;1101;116072;-68
2021/07/09 10:37:02;;;;;;;11.60;10.58;;;;;;;30.90;59.82;99799.88;255541;1096;115504;-68
2021/07/09 10:42:27;;;;;;;12.48;11.28;;;;;;;30.95;59.20;99808.63;256461;1101;114813;-67
2021/07/09 10:47:42;;;;;;;12.45;11.45;;;;;;;30.83;59.14;99797.05;254829;1101;115277;-67
2021/07/09 10:52:50;;;;;;;10.37;9.47;;;;;;;30.53;58.93;99796.91;255068;1101;116029;-70
2021/07/09 10:58:09;;;;;;;14.73;9.93;;;;;;;30.19;58.94;99802.20;254583;1101;115044;-68
2021/07/09 11:03:25;;;;;;;13.28;10.70;;;;;;;29.88;59.18;99802.34;255509;1101;115616;-69
2021/07/09 11:08:33;;;;;;;11.80;10.80;;;;;;;29.71;60.42;99798.06;254797;1097;115524;-68
2021/07/09 11:13:45;;;;;;;12.60;11.07;;;;;;;29.76;60.65;99795.03;255034;1101;115200;-68
2021/07/09 11:19:02;;;;;;;12.70;11.60;;;;;;;29.92;60.88;99797.72;254920;1101;115692;-70
2021/07/09 11:24:17;;;;;;;16.73;10.73;;;;;;;30.31;60.10;99792.97;255391;1101;116021;-69
2021/07/09 11:29:29;;;;;;;13.45;11.63;;;;;;;30.97;59.34;99798.05;254635;1101;116658;-69
2021/07/09 11:34:47;;;;;;;13.13;9.73;;;;;;;31.37;57.76;99799.45;254534;1101;115042;-70
2021/07/09 11:39:53;;;;;;;20.08;10.53;;;;;;;31.32;57.18;99799.77;255234;1101;115358;-67
2021/07/09 11:44:59;;;;;;;11.53;10.43;;;;;;;31.18;57.42;99808.63;254296;1103;115747;-67
2021/07/09 11:50:04;;;;;;;12.60;11.40;;;;;;;30.96;57.77;99807.47;255238;1101;116832;-67
2021/07/09 11:55:14;;;;;;;11.73;10.83;;;;;;;30.81;57.07;99802.91;255648;1101;116607;-68
2021/07/09 12:00:20;;;;;;;13.53;10.30;;;;;;;30.78;57.33;99800.90;254755;1101;115538;-66
2021/07/09 12:05:25;;;;;;;10.80;9.88;;;;;;;30.73;57.20;99793.74;254412;1101;115769;-67
2021/07/09 12:10:29;;;;;;;10.00;9.10;;;;;;;30.99;56.90;99801.22;255353;1101;115278;-67
2021/07/09 12:15:33;;;;;;;9.40;8.58;;;;;;;31.49;56.74;99790.97;256598;1101;115170;-66
2021/07/09 12:20:38;;;;;;;;;;;;;;;31.58;56.03;99772.16;257805;1101;114796;-67
2021/07/09 12:25:49;;;;;;;13.25;10.05;;;;;;;31.48;55.28;99761.83;256959;1102;103004;-67
2021/07/09 12:30:57;;;;;;;12.13;10.05;;;;;;;31.23;54.84;99766.19;256724;1101;115802;-67
2021/07/09 12:36:07;;;;;;;10.15;8.98;;;;;;;31.10;55.62;99746.33;256395;1101;115965;-66
2021/07/09 12:41:15;;;;;;;9.83;8.98;;;;;;;31.11;54.86;99743.20;255045;1101;114972;-66
2021/07/09 12:46:27;;;;;;;9.70;8.80;;;;;;;31.09;54.88;99745.53;255494;1096;119736;-67
2021/07/09 12:51:37;;;;;;;12.23;10.30;;;;;;;31.13;55.07;99720.84;254489;1101;114798;-67
2021/07/09 12:56:49;;;;;;;11.83;10.88;;;;;;;30.91;55.00;99703.18;254670;1101;115275;-68
2021/07/09 13:02:13;;;;;;;12.23;11.10;;;;;;;30.69;55.09;99660.02;254601;1101;115767;-67
2021/07/09 13:07:22;;;;;;;14.78;11.00;;;;;;;30.33;55.17;99648.45;254893;1101;115391;-66
2021/07/09 13:12:29;;;;;;;11.43;10.60;;;;;;;29.97;55.78;99648.98;254621;1096;116084;-67
2021/07/09 13:17:35;;;;;;;21.00;11.23;;;;;;;29.62;56.72;99636.23;254509;1101;115911;-68
2021/07/09 13:22:42;;;;;;;;;;;;;;;29.23;56.66;99654.66;254462;1101;115002;-69
2021/07/09 13:28:01;;;;;;;11.77;10.77;;;;;;;28.84;57.91;99684.01;255394;1101;104254;-67
2021/07/09 13:33:13;;;;;;;13.93;12.73;;;;;;;28.54;58.97;99686.42;255078;1101;115652;-67
2021/07/09 13:38:17;;;;;;;14.43;12.55;;;;;;;28.29;60.08;99701.48;254706;1101;115216;-66
2021/07/09 13:43:21;;;;;;;12.43;11.20;;;;;;;28.05;60.93;99718.86;254383;1101;115582;-66
2021/07/09 13:48:25;;;;;;;13.43;11.08;;;;;;;27.83;61.75;99742.92;255698;1101;115676;-67
2021/07/09 13:53:29;;;;;;;17.08;13.35;;;;;;;27.59;62.66;99744.98;255359;1101;115636;-67
2021/07/09 13:58:31;;;;;;;17.75;12.30;;;;;;;27.44;63.25;99743.75;255966;1101;115350;-67
2021/07/09 14:03:36;;;;;;;15.45;13.55;;;;;;;27.26;63.69;99723.26;254373;1101;116529;-68
2021/07/09 14:08:40;;;;;;;17.68;14.18;;;;;;;27.03;64.57;99721.03;255280;1101;115798;-67
2021/07/09 14:13:44;;;;;;;14.93;13.33;;;;;;;26.83;65.40;99831.36;256818;1101;114812;-67
2021/07/09 20:06:56;;;;;;;16.58;12.18;;;;;;;18.30;81.55;99855.14;261563;1093;103126;-68
2021/07/09 20:12:00;;;;;;;13.45;10.90;;;;;;;18.50;81.41;99849.56;254811;1104;116012;-66
2021/07/09 20:17:10;;;;;;;16.67;10.83;;;;;;;18.68;81.13;99850.75;256449;1104;116638;-66
2021/07/09 20:28:15;;;;;;;16.73;11.80;;;;;;;18.97;80.90;99824.52;260085;1094;102987;-66
2021/07/09 20:33:18;;;;;;;17.20;13.53;;;;;;;19.08;80.61;99820.61;255139;1103;115853;-65
2021/07/09 20:38:24;;;;;;;22.20;13.63;;;;;;;19.05;80.08;99813.08;254412;1103;115459;-66
2021/07/09 20:43:26;;;;;;;17.95;14.85;;;;;;;19.00;80.14;99810.44;254535;1096;116658;-68
2021/07/09 20:48:44;;;;;;;19.33;14.50;;;;;;;19.08;79.70;99814.41;254480;1103;116109;-69
2021/07/09 20:59:24;;;;;;;20.68;15.35;;;;;;;19.17;79.57;99805.38;255548;1091;116371;-66
2021/07/09 21:04:30;;;;;;;18.13;16.30;;;;;;;19.23;79.37;99797.20;254719;1107;115024;-67
2021/07/09 21:09:34;;;;;;;24.65;16.60;;;;;;;19.27;79.47;99781.99;254004;1103;115030;-67
2021/07/09 21:14:38;;;;;;;19.18;17.18;;;;;;;19.29;79.17;99796.83;254303;1108;116169;-67
2021/07/09 21:19:45;;;;;;;22.27;19.90;;;;;;;19.29;78.96;99786.02;255113;1108;117406;-67
2021/07/09 21:24:48;;;;;;;23.67;20.30;;;;;;;19.29;78.96;99787.91;254914;1107;115878;-67
2021/07/09 21:29:53;;;;;;;24.70;20.60;;;;;;;19.29;78.87;99790.62;254878;1107;115687;-67
2021/07/09 21:34:57;;;;;;;36.30;22.95;;;;;;;19.27;78.88;99792.80;259576;1091;120689;-65
2021/07/09 21:40:01;;;;;;;27.73;23.35;;;;;;;19.28;78.58;99786.30;255481;1107;116190;-65
2021/07/09 21:45:05;;;;;;;32.50;23.73;;;;;;;19.31;78.89;99766.81;255577;1107;116563;-68
2021/07/09 21:50:10;;;;;;;28.07;24.00;;;;;;;19.32;78.43;99769.22;256710;1107;115324;-67
2021/07/09 21:55:12;;;;;;;30.00;24.88;;;;;;;19.40;78.70;99781.29;256187;1108;118421;-67
2021/07/09 22:00:18;;;;;;;32.43;24.60;;;;;;;19.38;78.36;99800.50;256720;1108;115713;-68
2021/07/09 22:05:21;;;;;;;29.13;24.50;;;;;;;19.38;78.40;99805.10;256204;1103;115720;-68
2021/07/09 22:10:24;;;;;;;32.07;24.80;;;;;;;19.36;78.47;99818.09;253594;1107;115680;-68
2021/07/09 22:15:26;;;;;;;29.65;26.40;;;;;;;19.35;78.29;99821.90;253941;1107;115845;-67
2021/07/09 22:20:29;;;;;;;36.97;26.87;;;;;;;19.32;78.63;99828.69;254369;1107;116235;-68
2021/07/09 22:25:32;;;;;;;30.73;24.53;;;;;;;19.27;78.49;99838.75;253870;1107;117657;-67
2021/07/09 22:30:35;;;;;;;37.27;25.80;;;;;;;19.15;78.61;99833.78;254414;1107;115258;-67
2021/07/09 22:35:38;;;;;;;39.47;26.20;;;;;;;19.22;78.96;99844.24;254667;1108;116381;-67
2021/07/09 22:40:42;;;;;;;37.93;27.53;;;;;;;19.32;79.08;99822.47;254498;1108;115820;-68
2021/07/09 22:45:45;;;;;;;31.57;27.53;;;;;;;19.39;79.03;99828.34;254054;1103;118084;-67
2021/07/09 22:50:48;;;;;;;31.23;24.83;;;;;;;19.38;79.06;99826.73;254927;1108;115199;-66
2021/07/09 22:55:51;;;;;;;27.93;24.68;;;;;;;19.33;79.14;99819.48;254027;1108;114949;-68
2021/07/09 23:00:54;;;;;;;32.77;25.57;;;;;;;19.34;79.21;99831.91;256096;1107;115500;-68
2021/07/09 23:06:00;;;;;;;30.83;24.67;;;;;;;19.37;79.25;99831.33;256180;1108;115589;-69
2021/07/09 23:11:04;;;;;;;29.47;25.27;;;;;;;19.45;79.55;99827.18;256045;1107;116782;-68
2021/07/09 23:16:07;;;;;;;35.43;27.23;;;;;;;19.59;79.19;99828.08;254675;1108;116416;-69
2021/07/09 23:21:10;;;;;;;36.53;29.93;;;;;;;19.69;79.87;99819.03;254656;1107;115838;-67
2021/07/09 23:26:14;;;;;;;40.83;30.03;;;;;;;19.71;79.32;99831.16;255234;1108;117062;-67
2021/07/09 23:31:18;;;;;;;38.20;31.30;;;;;;;19.74;79.34;99821.66;254785;1107;116594;-69
2021/07/09 23:36:22;;;;;;;43.27;31.63;;;;;;;19.75;79.15;99817.86;255571;1108;116037;-69
2021/07/09 23:41:29;;;;;;;46.50;29.78;;;;;;;19.76;79.34;99824.88;255662;1107;116214;-67
2021/07/09 23:46:32;;;;;;;38.23;29.10;;;;;;;19.77;78.99;99821.89;255745;1108;116310;-67
2021/07/09 23:51:36;;;;;;;40.68;32.15;;;;;;;19.76;78.81;99820.28;256371;1107;116264;-67
2021/07/09 23:56:40;;;;;;;35.50;27.33;;;;;;;19.79;79.13;99838.63;256313;1108;116330;-68
